Tetbury, United Kingdom
Current Conditions -  °F | °C
As of 10:38 AM on Friday 24 Oct 2014 (Local Time) from EGVA Reporting Station
Overcast Overcast  
Wind Chill: 59°   Ceiling: 2200
Heat Index: 59°   Visibility: 6mi
Dew Point: 55°   Wind: 13mph
Humidity: 88%   Direction: 220°SW
Pressure: 29.94"   Gusts: NA
Location:  51.64°N, 2.16°W
Report Text: EGVA 240938Z AUTO 22011KT 9999 SCT010 BKN022 BKN060 OVC110 15/13 A2994 RMK AO2 CIG 010V022
Loading
Personal Weather Stations






























Interactive Weather Map
Tropical Storm Tracking
New forecast layout! Learn more

10-Day Weather Forecast

Advertisements
Track Severe Weather on mobile